Time;durP1;ratioP1;P1;durP2;ratioP2;P2;SDS_P1;SDS_P2;PMS_P1;PMS_P2;Temp;Humidity;BMP_temperature;BMP_pressure;BME280_temperature;BME280_humidity;BME280_pressure;Samples;Min_cycle;Max_cycle;Signal;HPM_P1;HPM_P2
2023/12/31 00:00:34;;;;;;;6.15;4.78;;;;;;;1.56;82.69;99871.34;2532083;28;20053;-83
2023/12/31 00:01:48;;;;;;;8.18;5.18;;;;;;;1.53;82.70;99867.03;2533765;28;20041;-81
2023/12/31 00:03:03;;;;;;;7.88;4.20;;;;;;;1.53;82.88;99856.72;2535127;28;20414;-83
2023/12/31 00:04:17;;;;;;;4.20;3.67;;;;;;;1.55;82.89;99866.16;2534278;28;20056;-80
2023/12/31 00:05:31;;;;;;;6.18;4.15;;;;;;;1.53;82.73;99855.88;2534077;28;20057;-83
2023/12/31 00:06:45;;;;;;;8.55;4.93;;;;;;;1.51;82.78;99853.25;2534415;28;20048;-83
2023/12/31 00:07:58;;;;;;;5.05;3.75;;;;;;;1.49;82.71;99848.94;2529790;28;20042;-83
2023/12/31 00:09:13;;;;;;;4.38;3.58;;;;;;;1.47;82.67;99850.63;2527838;28;20402;-82
2023/12/31 00:10:26;;;;;;;6.63;4.50;;;;;;;1.44;82.78;99855.72;2533198;28;20517;-82
2023/12/31 00:11:41;;;;;;;5.57;3.97;;;;;;;1.41;82.81;99847.97;2534068;28;20053;-81
2023/12/31 00:12:55;;;;;;;7.40;4.35;;;;;;;1.37;82.71;99841.03;2534433;28;20418;-80
2023/12/31 00:14:10;;;;;;;5.75;4.82;;;;;;;1.34;82.77;99841.84;2533938;28;20548;-83
2023/12/31 00:15:23;;;;;;;6.20;4.68;;;;;;;1.31;82.84;99837.53;2534329;28;20072;-85
2023/12/31 00:16:37;;;;;;;8.10;4.28;;;;;;;1.30;82.75;99840.94;2534707;28;20046;-85
2023/12/31 00:17:51;;;;;;;6.55;4.70;;;;;;;1.29;82.77;99831.53;2534194;28;20052;-85
2023/12/31 00:19:05;;;;;;;6.47;4.57;;;;;;;1.27;82.84;99824.63;2535560;28;20403;-85
2023/12/31 00:20:19;;;;;;;5.50;3.70;;;;;;;1.24;82.79;99817.72;2535403;28;20056;-85
2023/12/31 00:21:33;;;;;;;7.72;4.50;;;;;;;1.26;82.90;99817.72;2534529;28;20060;-84
2023/12/31 00:22:46;;;;;;;6.25;4.30;;;;;;;1.27;83.06;99811.78;2536350;28;20499;-83
2023/12/31 00:24:01;;;;;;;5.13;4.65;;;;;;;1.27;82.96;99807.50;2536363;28;20041;-82
2023/12/31 00:25:15;;;;;;;6.72;3.80;;;;;;;1.28;83.04;99816.06;2535046;28;20056;-84
2023/12/31 00:26:29;;;;;;;6.95;4.00;;;;;;;1.28;83.04;99804.06;2535251;28;20055;-84
2023/12/31 00:27:43;;;;;;;6.57;4.05;;;;;;;1.26;82.92;99808.31;2537568;28;20060;-83
2023/12/31 00:28:58;;;;;;;5.85;4.43;;;;;;;1.23;82.75;99794.56;2538250;28;20045;-82
2023/12/31 00:30:12;;;;;;;5.75;4.20;;;;;;;1.19;83.02;99791.09;2543083;28;20686;-81
2023/12/31 00:31:27;;;;;;;4.32;3.47;;;;;;;1.17;82.90;99792.75;2540697;28;20045;-84
2023/12/31 00:32:40;;;;;;;6.68;3.53;;;;;;;1.15;82.68;99788.44;2534328;28;20049;-80
2023/12/31 00:33:57;;;;;;;8.60;4.00;;;;;;;1.12;82.77;99794.41;2534457;28;20037;-84
2023/12/31 00:35:10;;;;;;;7.00;4.63;;;;;;;1.08;82.85;99788.34;2535289;28;20060;-84
2023/12/31 00:36:25;;;;;;;4.97;3.42;;;;;;;1.08;83.02;99784.91;2536767;28;20053;-84
2023/12/31 00:37:38;;;;;;;5.07;3.83;;;;;;;1.07;83.06;99778.03;2533625;28;20050;-84
2023/12/31 00:38:53;;;;;;;7.28;4.00;;;;;;;1.08;83.11;99770.38;2535358;28;20045;-85
2023/12/31 00:40:08;;;;;;;6.03;4.38;;;;;;;1.09;83.20;99766.09;2535022;28;20040;-84
2023/12/31 00:41:22;;;;;;;6.35;3.70;;;;;;;1.11;83.10;99769.56;2534661;28;20049;-84
2023/12/31 00:42:35;;;;;;;10.90;3.80;;;;;;;1.12;83.21;99760.13;2534415;28;20052;-84
2023/12/31 00:43:50;;;;;;;5.22;3.75;;;;;;;1.13;83.35;99762.72;2535253;28;20524;-84
2023/12/31 00:45:06;;;;;;;5.82;3.70;;;;;;;1.15;83.16;99771.31;2534039;28;20413;-84
2023/12/31 00:46:20;;;;;;;5.53;4.60;;;;;;;1.16;83.22;99760.22;2534207;28;20045;-84
2023/12/31 00:47:33;;;;;;;4.88;3.92;;;;;;;1.17;83.30;99767.06;2534364;28;20054;-83
2023/12/31 00:48:48;;;;;;;4.57;3.72;;;;;;;1.16;83.30;99761.88;2533987;28;20045;-81
2023/12/31 00:50:02;;;;;;;5.20;3.80;;;;;;;1.14;83.05;99758.47;2534026;28;20053;-83
2023/12/31 00:51:16;;;;;;;5.35;3.95;;;;;;;1.11;83.03;99754.13;2533780;28;20080;-82
2023/12/31 00:52:30;;;;;;;7.28;4.55;;;;;;;1.11;83.20;99751.56;2534199;28;20422;-81
2023/12/31 00:53:44;;;;;;;4.55;3.83;;;;;;;1.11;83.16;99753.25;2532903;28;20049;-81
2023/12/31 00:54:58;;;;;;;5.63;4.15;;;;;;;1.12;83.21;99758.44;2534105;28;20426;-81
2023/12/31 00:56:12;;;;;;;6.15;4.28;;;;;;;1.14;83.33;99753.31;2533536;28;20054;-80
2023/12/31 00:57:25;;;;;;;5.80;4.32;;;;;;;1.14;83.30;99754.19;2533077;28;20049;-81
2023/12/31 00:58:40;;;;;;;5.78;3.97;;;;;;;1.15;83.40;99755.03;2524367;28;20410;-81
2023/12/31 00:59:53;;;;;;;6.07;4.60;;;;;;;1.17;83.32;99749.06;2524580;28;20046;-83
2023/12/31 01:01:09;;;;;;;7.07;4.43;;;;;;;1.18;83.59;99750.78;2523344;28;20046;-80
2023/12/31 01:02:22;;;;;;;8.20;5.25;;;;;;;1.20;83.24;99743.13;2523938;28;20522;-83
2023/12/31 01:03:37;;;;;;;5.40;3.80;;;;;;;1.20;83.37;99754.25;2523712;28;20064;-81
2023/12/31 01:04:50;;;;;;;5.78;4.20;;;;;;;1.20;83.45;99756.81;2524260;28;20419;-83
2023/12/31 01:06:05;;;;;;;8.32;4.13;;;;;;;1.16;83.13;99756.75;2529341;28;20037;-81
2023/12/31 01:07:19;;;;;;;5.00;3.97;;;;;;;1.13;83.38;99752.44;2534483;28;20061;-82
2023/12/31 01:08:33;;;;;;;5.80;3.33;;;;;;;1.13;83.46;99742.16;2533766;28;20414;-83
2023/12/31 01:09:47;;;;;;;5.25;3.55;;;;;;;1.14;83.56;99749.03;2528339;28;20046;-81
2023/12/31 01:11:02;;;;;;;8.23;4.82;;;;;;;1.15;83.24;99744.75;2523570;28;20049;-83
2023/12/31 01:12:15;;;;;;;7.40;3.70;;;;;;;1.15;83.47;99734.47;2522925;28;20498;-79
2023/12/31 01:13:30;;;;;;;6.80;4.13;;;;;;;1.14;83.44;99731.06;2523736;28;20046;-82
2023/12/31 01:14:44;;;;;;;6.82;4.32;;;;;;;1.13;83.56;99731.00;2522522;28;20197;-83
2023/12/31 01:15:58;;;;;;;6.68;3.83;;;;;;;1.12;83.39;99727.59;2523744;28;20129;-83
2023/12/31 01:17:13;;;;;;;4.57;3.72;;;;;;;1.11;83.37;99727.56;2523482;28;20060;-82
2023/12/31 01:18:27;;;;;;;6.28;3.90;;;;;;;1.10;83.44;99729.25;2533172;28;20136;-83
2023/12/31 01:19:41;;;;;;;6.55;3.83;;;;;;;1.09;83.46;99723.25;2525014;28;20661;-82
2023/12/31 01:20:55;;;;;;;5.53;3.95;;;;;;;1.06;83.39;99730.06;2533694;28;20045;-82
2023/12/31 01:22:09;;;;;;;5.38;4.05;;;;;;;1.02;83.36;99725.72;2533292;28;20106;-81
2023/12/31 01:23:23;;;;;;;4.68;4.20;;;;;;;1.02;83.50;99724.00;2534327;28;20119;-81
2023/12/31 01:24:37;;;;;;;10.00;3.88;;;;;;;1.01;83.48;99724.00;2533271;28;20045;-82
2023/12/31 01:25:51;;;;;;;4.57;3.28;;;;;;;1.01;83.53;99724.00;2534259;28;20045;-83
2023/12/31 01:27:05;;;;;;;7.68;4.57;;;;;;;1.00;83.24;99722.25;2533148;28;20418;-82
2023/12/31 01:28:19;;;;;;;4.18;3.67;;;;;;;0.96;83.41;99717.94;2534231;28;20052;-83
2023/12/31 01:29:36;;;;;;;6.03;3.80;;;;;;;0.96;83.47;99717.94;2534892;28;20053;-82
2023/12/31 01:30:51;;;;;;;5.50;4.13;;;;;;;0.96;83.45;99717.94;2536559;28;20040;-82
2023/12/31 01:32:05;;;;;;;6.07;4.72;;;;;;;0.94;83.48;99714.47;2536015;28;20422;-82
2023/12/31 01:33:21;;;;;;;6.38;4.38;;;;;;;0.92;83.45;99711.88;2535930;28;20053;-82
2023/12/31 01:34:34;;;;;;;10.90;7.18;;;;;;;0.92;83.46;99705.88;2535315;28;20050;-81
2023/12/31 01:35:49;;;;;;;9.10;4.47;;;;;;;0.93;83.57;99697.31;2535787;28;20075;-82
2023/12/31 01:37:03;;;;;;;6.20;3.72;;;;;;;0.93;83.54;99700.78;2535242;28;20414;-82
2023/12/31 01:38:18;;;;;;;5.00;4.43;;;;;;;0.93;83.73;99697.31;2535238;28;20053;-82
2023/12/31 01:39:31;;;;;;;6.53;4.43;;;;;;;0.93;83.63;99698.19;2536412;28;20041;-80
2023/12/31 01:40:52;;;;;;;6.53;4.13;;;;;;;0.94;83.46;99693.91;2535442;28;20068;-81
2023/12/31 01:42:05;;;;;;;5.53;4.53;;;;;;;0.93;83.60;99687.03;2535338;28;20042;-82
2023/12/31 01:43:20;;;;;;;7.63;4.65;;;;;;;0.92;83.45;99682.75;2535413;28;20053;-81
2023/12/31 01:44:33;;;;;;;8.45;4.60;;;;;;;0.93;83.47;99681.91;2535709;28;20133;-83
2023/12/31 01:45:48;;;;;;;6.20;4.97;;;;;;;0.91;83.42;99676.75;2534739;28;20045;-82
2023/12/31 01:47:01;;;;;;;7.93;4.93;;;;;;;0.92;83.71;99657.91;2535879;28;20057;-83
2023/12/31 01:48:16;;;;;;;6.10;4.03;;;;;;;0.93;83.79;99657.09;2535367;28;20049;-81
2023/12/31 01:49:32;;;;;;;6.60;5.10;;;;;;;0.94;83.70;99653.66;2534049;28;20042;-81
2023/12/31 01:50:47;;;;;;;4.75;3.88;;;;;;;0.96;83.65;99675.13;2524983;28;20129;-83
2023/12/31 01:52:00;;;;;;;4.22;3.80;;;;;;;0.99;83.71;99671.72;2526258;28;20057;-80
2023/12/31 01:53:15;;;;;;;4.72;4.30;;;;;;;1.00;83.50;99669.16;2525181;28;20046;-81
2023/12/31 01:54:28;;;;;;;5.35;4.07;;;;;;;1.02;83.64;99674.34;2525481;28;20046;-81
2023/12/31 01:55:44;;;;;;;10.45;5.75;;;;;;;1.02;83.78;99656.34;2525697;28;20056;-81
2023/12/31 01:56:58;;;;;;;7.35;4.68;;;;;;;1.01;83.65;99659.78;2525977;28;20068;-81
2023/12/31 01:58:12;;;;;;;7.00;4.72;;;;;;;0.99;83.68;99653.75;2532022;28;20045;-81
2023/12/31 01:59:26;;;;;;;7.88;4.30;;;;;;;1.02;83.84;99653.78;2535512;28;20621;-83
2023/12/31 02:00:40;;;;;;;7.90;4.38;;;;;;;1.05;83.81;99656.38;2536397;28;20050;-82
2023/12/31 02:01:54;;;;;;;6.07;4.05;;;;;;;1.08;83.88;99648.72;2535271;28;20037;-83
2023/12/31 02:03:10;;;;;;;7.93;4.88;;;;;;;1.12;83.87;99647.91;2535195;28;20505;-82
2023/12/31 02:04:23;;;;;;;7.53;5.25;;;;;;;1.16;83.96;99643.69;2533050;28;20495;-80
2023/12/31 02:05:39;;;;;;;4.80;3.80;;;;;;;1.21;84.07;99647.16;2532154;28;20055;-81
2023/12/31 02:06:53;;;;;;;6.25;5.32;;;;;;;1.24;84.03;99645.53;2525263;28;20061;-83
2023/12/31 02:08:07;;;;;;;7.07;4.68;;;;;;;1.26;84.07;99638.66;2525956;28;20424;-82
2023/12/31 02:09:20;;;;;;;10.20;4.97;;;;;;;1.28;84.07;99642.13;2524651;28;20054;-80
2023/12/31 02:10:35;;;;;;;5.75;4.25;;;;;;;1.31;83.99;99637.03;2525703;28;20066;-82
2023/12/31 02:11:48;;;;;;;8.20;6.82;;;;;;;1.34;83.81;99638.75;2524981;28;20295;-83
2023/12/31 02:13:03;;;;;;;6.18;4.15;;;;;;;1.39;84.11;99643.97;2525557;28;20054;-83
2023/12/31 02:14:16;;;;;;;4.40;3.72;;;;;;;1.43;84.11;99643.19;2533273;28;20045;-81
2023/12/31 02:15:32;;;;;;;6.25;4.72;;;;;;;1.48;84.07;99641.53;2536247;28;20079;-84
2023/12/31 02:16:45;;;;;;;8.23;4.68;;;;;;;1.53;84.22;99639.88;2535617;28;20053;-85
2023/12/31 02:18:00;;;;;;;7.88;5.60;;;;;;;1.58;84.21;99643.34;2535987;28;20049;-83
2023/12/31 02:19:14;;;;;;;7.13;5.60;;;;;;;1.64;84.17;99637.41;2535676;28;20041;-84
2023/12/31 02:20:29;;;;;;;6.35;5.43;;;;;;;1.71;83.97;99634.06;2535998;28;20124;-83
2023/12/31 02:21:44;;;;;;;8.32;6.18;;;;;;;1.77;84.14;99620.41;2535096;28;20048;-82
2023/12/31 02:22:59;;;;;;;9.90;7.13;;;;;;;1.82;83.94;99616.16;2536224;28;20033;-84
2023/12/31 02:24:14;;;;;;;12.25;6.45;;;;;;;1.85;84.27;99614.47;2535470;28;20053;-83
2023/12/31 02:25:29;;;;;;;9.93;6.63;;;;;;;1.90;84.53;99606.81;2535763;28;20049;-84
2023/12/31 02:26:44;;;;;;;9.32;5.60;;;;;;;1.91;84.10;99601.69;2534974;28;20057;-82
2023/12/31 02:27:58;;;;;;;8.05;5.53;;;;;;;1.92;83.98;99597.41;2535985;28;20049;-84
2023/12/31 02:29:12;;;;;;;7.63;5.50;;;;;;;1.94;84.04;99603.44;2535543;28;20049;-84
2023/12/31 02:30:26;;;;;;;7.55;5.22;;;;;;;1.97;84.13;99593.16;2525824;28;20052;-81
2023/12/31 02:31:40;;;;;;;5.65;4.25;;;;;;;2.01;84.21;99599.19;2525572;28;20415;-83
2023/12/31 02:32:54;;;;;;;7.70;4.53;;;;;;;2.02;84.11;99594.06;2525776;28;20060;-82
2023/12/31 02:34:08;;;;;;;6.82;5.75;;;;;;;2.04;84.04;99586.34;2532608;28;20044;-84
2023/12/31 02:35:22;;;;;;;5.85;5.05;;;;;;;2.03;84.03;99588.06;2535644;28;20155;-85
2023/12/31 02:36:36;;;;;;;9.93;5.15;;;;;;;2.05;83.95;99590.66;2535648;28;20072;-84
2023/12/31 02:37:50;;;;;;;7.50;5.78;;;;;;;2.06;84.19;99592.38;2534852;28;20051;-82
2023/12/31 02:39:03;;;;;;;5.80;4.70;;;;;;;2.11;84.07;99588.97;2536162;28;20045;-85
2023/12/31 02:40:18;;;;;;;5.90;4.90;;;;;;;2.15;84.07;99589.88;2534700;28;20041;-82
2023/12/31 02:41:32;;;;;;;21.63;12.38;;;;;;;2.16;84.13;99579.59;2535052;28;20049;-84
2023/12/31 02:42:47;;;;;;;69.63;42.05;;;;;;;2.18;84.20;99567.59;2527373;28;20467;-83
2023/12/31 02:44:01;;;;;;;31.60;15.85;;;;;;;2.21;84.14;99577.06;2535967;28;20045;-84
2023/12/31 02:45:16;;;;;;;9.60;7.85;;;;;;;2.24;84.03;99577.06;2534687;28;20457;-86
2023/12/31 02:46:29;;;;;;;8.07;5.93;;;;;;;2.23;84.11;99579.66;2535321;28;20060;-83
2023/12/31 02:47:43;;;;;;;7.30;5.50;;;;;;;2.25;84.05;99575.38;2535207;28;20053;-84
2023/12/31 02:48:57;;;;;;;6.28;4.40;;;;;;;2.27;84.13;99573.66;2536585;28;20049;-83
2023/12/31 02:50:11;;;;;;;22.10;4.63;;;;;;;2.30;84.11;99577.13;2535512;28;20449;-84
2023/12/31 02:51:25;;;;;;;7.32;4.53;;;;;;;2.33;84.20;99568.56;2536041;28;20061;-84
2023/12/31 02:52:39;;;;;;;10.77;4.85;;;;;;;2.35;84.19;99561.69;2535785;28;20045;-85
2023/12/31 02:53:53;;;;;;;5.68;5.15;;;;;;;2.39;84.13;99561.75;2536156;28;20057;-82
2023/12/31 02:55:07;;;;;;;8.25;3.92;;;;;;;2.44;84.15;99548.91;2535416;28;20388;-85
2023/12/31 02:56:22;;;;;;;6.85;4.60;;;;;;;2.47;84.10;99535.19;2535436;28;20046;-85
2023/12/31 02:57:36;;;;;;;6.05;5.20;;;;;;;2.50;84.15;99530.91;2535670;28;20059;-81
2023/12/31 02:58:51;;;;;;;4.85;4.13;;;;;;;2.56;84.21;99530.09;2536091;28;20057;-83
2023/12/31 03:00:07;;;;;;;13.38;4.93;;;;;;;2.57;84.10;99545.53;2536810;28;20041;-85
2023/12/31 03:01:21;;;;;;;6.85;4.22;;;;;;;2.59;83.91;99545.56;2535186;28;20080;-85
2023/12/31 03:02:36;;;;;;;6.18;4.55;;;;;;;2.59;83.77;99543.00;2536030;28;20045;-85
2023/12/31 03:03:49;;;;;;;6.28;4.57;;;;;;;2.56;83.79;99538.69;2535233;28;20103;-83
2023/12/31 03:05:04;;;;;;;6.68;4.50;;;;;;;2.56;83.73;99543.84;2536046;28;20050;-85
2023/12/31 03:06:17;;;;;;;5.57;4.97;;;;;;;2.57;83.87;99542.97;2535036;28;20049;-82
2023/12/31 03:07:32;;;;;;;7.53;4.68;;;;;;;2.60;83.78;99534.41;2536436;28;20053;-82
2023/12/31 03:08:45;;;;;;;9.95;5.05;;;;;;;2.64;83.79;99537.88;2535352;28;20076;-84
2023/12/31 03:10:00;;;;;;;8.70;6.35;;;;;;;2.65;83.82;99531.84;2535647;28;20046;-84
2023/12/31 03:11:13;;;;;;;7.90;4.13;;;;;;;2.65;83.64;99532.72;2535837;28;20060;-84
2023/12/31 03:12:28;;;;;;;5.85;4.25;;;;;;;2.68;83.69;99531.88;2536473;28;20041;-84
2023/12/31 03:13:41;;;;;;;6.72;4.05;;;;;;;2.72;83.72;99531.03;2535414;28;20053;-84
2023/12/31 03:14:57;;;;;;;6.35;4.70;;;;;;;2.72;83.55;99525.88;2536237;28;20051;-83
2023/12/31 03:16:10;;;;;;;6.57;5.25;;;;;;;2.72;83.58;99525.88;2535977;28;20065;-83
2023/12/31 03:17:25;;;;;;;8.60;5.65;;;;;;;2.74;83.66;99524.19;2536233;28;20058;-83
2023/12/31 03:18:38;;;;;;;6.85;6.03;;;;;;;2.76;83.64;99528.50;2536483;28;20049;-83
2023/12/31 03:19:52;;;;;;;4.95;4.55;;;;;;;2.79;83.58;99522.50;2537797;28;20046;-80
2023/12/31 03:21:06;;;;;;;5.07;4.50;;;;;;;2.81;83.57;99523.34;2542548;28;20045;-79
2023/12/31 03:22:20;;;;;;;8.07;4.53;;;;;;;2.81;83.58;99510.47;2535305;28;20051;-82
2023/12/31 03:23:34;;;;;;;5.57;4.90;;;;;;;2.81;83.64;99507.88;2535229;28;20050;-80
2023/12/31 03:24:48;;;;;;;4.38;3.97;;;;;;;2.82;83.56;99504.47;2534986;28;20049;-83
2023/12/31 03:26:05;;;;;;;7.28;4.63;;;;;;;2.82;83.26;99487.28;2537076;28;20046;-81
2023/12/31 03:27:20;;;;;;;5.53;4.30;;;;;;;2.83;83.33;99498.44;2537389;28;20064;-81
2023/12/31 03:28:33;;;;;;;5.78;5.20;;;;;;;2.81;83.22;99498.47;2538332;28;20049;-81
2023/12/31 03:29:49;;;;;;;12.77;4.70;;;;;;;2.80;83.32;99494.16;2536713;28;20048;-80
2023/12/31 03:31:03;;;;;;;5.72;4.85;;;;;;;2.81;83.28;99498.47;2538428;28;20233;-82
2023/12/31 03:32:18;;;;;;;8.13;5.07;;;;;;;2.79;83.10;99501.88;2537466;28;20049;-82
2023/12/31 03:33:31;;;;;;;6.95;4.32;;;;;;;2.78;83.18;99502.72;2538114;28;20060;-80
2023/12/31 03:34:46;;;;;;;5.32;3.97;;;;;;;2.78;83.13;99500.16;2537279;28;20053;-82
2023/12/31 03:35:59;;;;;;;6.40;4.65;;;;;;;2.78;83.09;99502.72;2538317;28;20049;-82
2023/12/31 03:37:15;;;;;;;6.95;4.82;;;;;;;2.78;83.17;99492.41;2537775;28;20059;-81
2023/12/31 03:38:28;;;;;;;8.35;4.35;;;;;;;2.78;83.14;99495.00;2537564;28;20048;-82
2023/12/31 03:39:42;;;;;;;5.75;4.35;;;;;;;2.78;83.04;99489.84;2537219;28;20053;-81
2023/12/31 03:40:56;;;;;;;5.68;4.60;;;;;;;2.78;82.93;99489.84;2537183;28;20053;-82
2023/12/31 03:42:11;;;;;;;5.13;4.57;;;;;;;2.78;82.90;99490.69;2530055;28;20060;-81
2023/12/31 03:43:24;;;;;;;7.00;5.65;;;;;;;2.76;82.96;99483.81;2528141;28;20060;-83
2023/12/31 03:44:39;;;;;;;6.28;4.75;;;;;;;2.73;82.81;99482.09;2526846;28;20068;-82
2023/12/31 03:45:52;;;;;;;5.82;4.45;;;;;;;2.68;82.69;99482.91;2526334;28;20042;-81
2023/12/31 03:47:08;;;;;;;5.85;5.03;;;;;;;2.65;82.58;99478.63;2527591;28;20050;-82
2023/12/31 03:48:21;;;;;;;7.40;5.32;;;;;;;2.60;82.61;99476.00;2526815;28;20053;-82
2023/12/31 03:49:35;;;;;;;7.90;4.32;;;;;;;2.59;82.56;99473.44;2529260;28;20482;-81
2023/12/31 03:50:49;;;;;;;5.82;5.07;;;;;;;2.57;82.69;99483.72;2528605;28;20467;-80
2023/12/31 03:52:04;;;;;;;5.97;4.40;;;;;;;2.55;82.79;99477.72;2539612;28;20060;-80
2023/12/31 03:53:17;;;;;;;7.20;5.03;;;;;;;2.53;82.67;99476.88;2537761;28;20156;-80
2023/12/31 03:54:32;;;;;;;6.60;5.68;;;;;;;2.54;82.77;99470.00;2526879;28;20157;-81
2023/12/31 03:55:46;;;;;;;7.57;5.30;;;;;;;2.56;82.80;99476.00;2527956;28;20053;-79
2023/12/31 03:57:00;;;;;;;6.30;4.40;;;;;;;2.55;82.80;99467.41;2527614;28;20046;-81
2023/12/31 03:58:13;;;;;;;8.23;5.35;;;;;;;2.52;82.77;99467.41;2529674;28;20050;-79
2023/12/31 03:59:28;;;;;;;6.20;4.72;;;;;;;2.53;82.87;99465.69;2528730;28;20557;-80
2023/12/31 04:00:41;;;;;;;11.43;6.78;;;;;;;2.53;82.84;99468.25;2528018;28;20042;-80
2023/12/31 04:01:58;;;;;;;9.20;7.03;;;;;;;2.53;82.86;99470.81;2527831;28;20049;-80
2023/12/31 04:03:12;;;;;;;6.38;4.47;;;;;;;2.52;82.71;99464.81;2527549;28;20076;-79
2023/12/31 04:04:29;;;;;;;6.65;4.72;;;;;;;2.52;82.82;99462.25;2528031;28;20176;-80
2023/12/31 04:05:42;;;;;;;4.45;4.05;;;;;;;2.51;82.61;99464.84;2530544;28;20052;-80
2023/12/31 04:06:56;;;;;;;4.72;3.38;;;;;;;2.48;82.71;99457.94;2537906;28;20050;-81
2023/12/31 04:08:10;;;;;;;5.57;5.07;;;;;;;2.48;82.67;99460.53;2537984;28;20053;-79
2023/12/31 04:09:24;;;;;;;5.85;4.47;;;;;;;2.48;82.69;99454.50;2537420;28;20055;-79
2023/12/31 04:10:38;;;;;;;5.25;4.18;;;;;;;2.49;82.83;99456.22;2538143;28;20042;-79
2023/12/31 04:11:52;;;;;;;5.80;5.20;;;;;;;2.49;82.90;99443.34;2537298;28;20055;-81
2023/12/31 04:13:05;;;;;;;5.47;4.85;;;;;;;2.50;82.86;99442.50;2538879;28;20041;-80
2023/12/31 04:14:20;;;;;;;9.48;6.32;;;;;;;2.52;83.00;99444.22;2532767;28;20073;-79
2023/12/31 04:15:33;;;;;;;7.15;5.55;;;;;;;2.53;82.86;99435.66;2537984;28;20640;-80
2023/12/31 04:16:47;;;;;;;9.85;4.78;;;;;;;2.55;82.91;99445.94;2537603;28;20053;-83
2023/12/31 04:18:01;;;;;;;10.27;5.68;;;;;;;2.55;83.02;99435.66;2531609;28;20057;-81
2023/12/31 04:19:17;;;;;;;6.38;4.65;;;;;;;2.56;82.93;99439.97;2526367;28;20060;-82
2023/12/31 04:20:30;;;;;;;7.85;6.38;;;;;;;2.55;82.75;99436.50;2527697;28;20057;-82
2023/12/31 04:21:45;;;;;;;8.00;5.35;;;;;;;2.56;82.87;99443.38;2529653;28;20067;-80
2023/12/31 04:22:58;;;;;;;8.85;5.55;;;;;;;2.57;82.94;99445.09;2537695;28;20045;-82
2023/12/31 04:24:13;;;;;;;6.95;5.13;;;;;;;2.56;82.76;99433.09;2536373;28;20109;-80
2023/12/31 04:25:26;;;;;;;5.47;4.18;;;;;;;2.53;82.85;99433.09;2535374;28;20406;-81
2023/12/31 04:26:43;;;;;;;6.47;3.75;;;;;;;2.55;83.13;99431.34;2526237;28;20053;-81
2023/12/31 04:27:58;;;;;;;6.95;6.18;;;;;;;2.57;82.94;99431.38;2527547;28;20045;-80
2023/12/31 04:29:12;;;;;;;7.63;4.47;;;;;;;2.58;82.88;99431.38;2526967;28;20045;-81
2023/12/31 04:30:26;;;;;;;5.78;4.40;;;;;;;2.58;82.88;99427.94;2535845;28;20045;-83
2023/12/31 04:31:45;;;;;;;6.93;4.60;;;;;;;2.58;82.76;99433.06;2536319;28;20067;-80
2023/12/31 04:32:58;;;;;;;9.00;4.70;;;;;;;2.57;82.85;99419.34;2536752;28;20057;-82
2023/12/31 04:34:13;;;;;;;6.75;5.40;;;;;;;2.58;82.88;99408.22;2535667;28;20051;-79
2023/12/31 04:35:27;;;;;;;5.10;4.50;;;;;;;2.60;82.72;99409.03;2536450;28;20049;-80
2023/12/31 04:36:43;;;;;;;6.05;4.82;;;;;;;2.64;82.92;99414.22;2536685;28;20049;-80
2023/12/31 04:37:56;;;;;;;8.25;5.18;;;;;;;2.67;82.97;99406.50;2535777;28;20050;-81
2023/12/31 04:39:11;;;;;;;6.70;5.47;;;;;;;2.71;83.05;99419.41;2537172;28;20104;-79
2023/12/31 04:40:25;;;;;;;6.35;3.67;;;;;;;2.74;83.09;99411.69;2536705;28;20406;-80
2023/12/31 04:41:39;;;;;;;6.07;4.38;;;;;;;2.77;83.04;99422.00;2536668;28;20060;-81
2023/12/31 04:42:53;;;;;;;9.82;4.68;;;;;;;2.80;83.06;99421.16;2537289;28;20046;-80
2023/12/31 04:44:08;;;;;;;6.55;5.95;;;;;;;2.81;82.95;99420.28;2537734;28;20046;-79
2023/12/31 04:45:21;;;;;;;5.35;4.18;;;;;;;2.82;82.88;99417.72;2536270;28;20049;-82
2023/12/31 04:46:36;;;;;;;5.30;4.45;;;;;;;2.83;82.93;99416.00;2537539;28;20052;-82
2023/12/31 04:47:49;;;;;;;8.27;5.60;;;;;;;2.84;82.97;99420.31;2536418;28;20050;-81
2023/12/31 04:49:03;;;;;;;8.63;6.30;;;;;;;2.84;82.94;99413.44;2537500;28;20052;-81
2023/12/31 04:50:17;;;;;;;7.85;5.07;;;;;;;2.85;82.84;99416.88;2529013;28;20049;-82
2023/12/31 04:51:33;;;;;;;8.40;4.63;;;;;;;2.86;83.00;99423.72;2527975;28;20045;-82
2023/12/31 04:52:46;;;;;;;8.38;5.07;;;;;;;2.86;82.90;99416.00;2525980;28;20049;-80
2023/12/31 04:54:00;;;;;;;6.47;4.57;;;;;;;2.88;82.89;99403.97;2527296;28;20321;-81
2023/12/31 04:55:14;;;;;;;5.93;5.20;;;;;;;2.89;82.85;99410.88;2527172;28;20054;-80
2023/12/31 04:56:28;;;;;;;7.97;5.53;;;;;;;2.91;82.93;99400.56;2527685;28;20050;-82
2023/12/31 04:57:42;;;;;;;6.38;4.70;;;;;;;2.93;82.88;99401.44;2526164;28;20045;-83
2023/12/31 04:58:58;;;;;;;6.45;5.85;;;;;;;2.94;82.76;99388.53;2526285;28;20522;-79
2023/12/31 05:00:13;;;;;;;11.93;5.45;;;;;;;2.94;82.89;99393.69;2526307;28;20056;-81
2023/12/31 05:01:31;;;;;;;4.47;3.83;;;;;;;2.95;82.80;99394.56;2526569;28;20080;-81
2023/12/31 05:02:45;;;;;;;8.23;4.95;;;;;;;2.95;82.81;99390.25;2537477;28;20045;-81
2023/12/31 05:04:00;;;;;;;6.63;4.32;;;;;;;2.94;82.71;99393.69;2536960;28;20053;-80
2023/12/31 05:05:14;;;;;;;10.43;3.53;;;;;;;2.94;82.70;99388.53;2539684;28;20059;-82
2023/12/31 05:06:28;;;;;;;8.65;5.03;;;;;;;2.93;82.63;99386.81;2529658;28;20052;-81
2023/12/31 05:07:43;;;;;;;5.60;3.72;;;;;;;2.92;82.69;99379.97;2528932;28;20053;-82
2023/12/31 05:08:58;;;;;;;6.78;3.85;;;;;;;2.92;82.67;99395.41;2527663;28;20054;-82
2023/12/31 05:10:11;;;;;;;5.97;4.50;;;;;;;2.91;82.65;99393.69;2528422;28;20069;-82
2023/12/31 05:11:26;;;;;;;9.70;4.78;;;;;;;2.90;82.57;99391.13;2528504;28;20050;-80
2023/12/31 05:12:40;;;;;;;7.57;4.68;;;;;;;2.88;82.51;99383.38;2529420;28;20084;-82
2023/12/31 05:13:54;;;;;;;5.05;4.28;;;;;;;2.89;82.55;99391.97;2532780;28;20045;-82
2023/12/31 05:15:08;;;;;;;6.68;4.40;;;;;;;2.88;82.62;99391.09;2538295;28;20434;-81
2023/12/31 05:16:22;;;;;;;7.97;4.93;;;;;;;2.87;82.48;99391.13;2537847;28;20053;-80
2023/12/31 05:17:35;;;;;;;9.65;5.50;;;;;;;2.82;82.35;99386.78;2535679;28;20050;-80
2023/12/31 05:18:51;;;;;;;10.07;6.32;;;;;;;2.81;82.25;99386.78;2529633;28;20496;-81
2023/12/31 05:20:07;;;;;;;8.48;6.03;;;;;;;2.77;82.37;99379.91;2530354;28;20050;-82
2023/12/31 05:21:22;;;;;;;7.30;5.97;;;;;;;2.73;82.33;99385.91;2529297;28;20510;-82
2023/12/31 05:22:35;;;;;;;4.32;3.92;;;;;;;2.66;82.20;99382.47;2539883;28;20116;-81
2023/12/31 05:23:51;;;;;;;7.57;5.57;;;;;;;2.61;82.10;99376.44;2539747;28;20052;-81
2023/12/31 05:25:05;;;;;;;11.10;7.28;;;;;;;2.56;82.16;99376.44;2539431;28;20053;-83
2023/12/31 05:26:20;;;;;;;8.68;5.65;;;;;;;2.53;82.22;99389.28;2538090;28;20049;-81
2023/12/31 05:27:33;;;;;;;6.22;4.95;;;;;;;2.50;82.16;99398.72;2540521;28;20060;-80
2023/12/31 05:28:48;;;;;;;9.55;5.85;;;;;;;2.47;82.21;99393.56;2540954;28;20045;-82
2023/12/31 05:30:01;;;;;;;16.85;13.65;;;;;;;2.42;82.18;99396.09;2539046;28;20045;-79
2023/12/31 05:31:15;;;;;;;10.15;8.77;;;;;;;2.38;82.24;99394.38;2540299;28;20045;-82
2023/12/31 05:32:29;;;;;;;10.93;5.70;;;;;;;2.36;82.19;99389.22;2540062;28;20072;-81
2023/12/31 05:33:44;;;;;;;11.32;6.18;;;;;;;2.35;82.38;99392.66;2540419;28;20454;-81
2023/12/31 05:34:57;;;;;;;10.80;6.13;;;;;;;2.33;82.28;99399.50;2540266;28;20064;-80
2023/12/31 05:36:12;;;;;;;7.82;6.15;;;;;;;2.31;82.31;99396.06;2540047;28;20053;-82
2023/12/31 05:37:25;;;;;;;9.27;7.13;;;;;;;2.30;82.48;99403.78;2537316;28;20050;-80
2023/12/31 05:38:40;;;;;;;6.85;5.40;;;;;;;2.29;82.26;99409.78;2529708;28;20050;-82
2023/12/31 05:39:54;;;;;;;9.32;5.50;;;;;;;2.28;82.56;99413.22;2529695;28;20054;-81
2023/12/31 05:41:09;;;;;;;6.72;5.80;;;;;;;2.28;82.59;99406.34;2529779;28;20562;-81
2023/12/31 05:42:22;;;;;;;9.60;4.32;;;;;;;2.26;82.52;99397.75;2537950;28;20045;-82
2023/12/31 05:43:37;;;;;;;7.63;4.47;;;;;;;2.28;82.59;99402.91;2539861;28;20104;-80
2023/12/31 05:44:50;;;;;;;5.95;5.28;;;;;;;2.29;82.71;99400.34;2539340;28;20049;-80
2023/12/31 05:46:04;;;;;;;6.45;3.38;;;;;;;2.31;82.59;99400.34;2539073;28;20045;-81
2023/12/31 05:47:18;;;;;;;4.90;3.50;;;;;;;2.33;82.66;99402.09;2539253;28;20076;-80
2023/12/31 05:48:32;;;;;;;4.20;3.47;;;;;;;2.35;82.85;99402.06;2533307;28;20050;-82
2023/12/31 05:49:46;;;;;;;9.25;3.92;;;;;;;2.36;82.85;99396.09;2533016;28;20052;-81
2023/12/31 05:51:00;;;;;;;4.38;3.47;;;;;;;2.35;82.62;99402.06;2539622;28;20042;-80
2023/12/31 05:52:14;;;;;;;7.20;4.60;;;;;;;2.32;82.83;99400.38;2539734;28;20053;-81
2023/12/31 05:53:28;;;;;;;7.38;4.50;;;;;;;2.29;82.68;99392.63;2539008;28;20124;-81